createdAt,value
2017-08-18T00:00:55.495Z,25.77
2017-08-18T00:03:23.030Z,24.97
2017-08-18T00:05:50.548Z,25.80
2017-08-18T00:08:18.062Z,26.07
2017-08-18T00:10:45.604Z,25.50
2017-08-18T00:13:13.120Z,25.47
2017-08-18T00:15:40.631Z,28.10
2017-08-18T00:18:08.176Z,21.97
2017-08-18T00:20:35.695Z,22.23
2017-08-18T00:23:03.206Z,23.97
2017-08-18T00:25:30.746Z,24.53
2017-08-18T00:27:58.255Z,23.00
2017-08-18T00:30:25.758Z,24.63
2017-08-18T00:32:53.299Z,21.80
2017-08-18T00:35:20.807Z,23.20
2017-08-18T00:37:48.319Z,22.53
2017-08-18T00:40:15.854Z,21.93
2017-08-18T00:42:43.367Z,24.87
2017-08-18T00:45:11.221Z,24.60
2017-08-18T00:47:38.994Z,26.67
2017-08-18T00:50:06.752Z,27.73
2017-08-18T00:52:34.279Z,26.00
2017-08-18T00:55:01.825Z,25.10
2017-08-18T00:57:29.347Z,26.57
2017-08-18T00:59:56.863Z,27.23
2017-08-18T01:02:24.399Z,27.23
2017-08-18T01:04:51.911Z,26.73
2017-08-18T01:07:19.427Z,27.10
2017-08-18T01:09:46.962Z,27.90
2017-08-18T01:12:14.498Z,26.40
2017-08-18T01:14:42.010Z,26.80
2017-08-18T01:17:09.527Z,26.70
2017-08-18T01:19:37.074Z,26.07
2017-08-18T01:22:04.638Z,25.80
2017-08-18T01:24:32.150Z,26.07
2017-08-18T01:26:59.663Z,26.53
2017-08-18T01:29:27.203Z,25.97
2017-08-18T01:31:54.706Z,25.97
2017-08-18T01:34:22.215Z,25.50
2017-08-18T01:36:49.744Z,24.57
2017-08-18T01:39:17.254Z,26.20
2017-08-18T01:41:44.767Z,26.40
2017-08-18T01:44:12.307Z,24.00
2017-08-18T01:46:39.823Z,24.90
2017-08-18T01:49:07.330Z,23.80
2017-08-18T01:51:34.863Z,25.43
2017-08-18T01:54:02.370Z,24.77
2017-08-18T01:56:29.882Z,24.90
2017-08-18T01:58:57.415Z,23.80
2017-08-18T02:01:24.923Z,25.67
2017-08-18T02:03:52.434Z,23.70
2017-08-18T02:06:19.978Z,25.60
2017-08-18T02:08:47.477Z,23.70
2017-08-18T02:11:14.988Z,23.10
2017-08-18T02:13:42.517Z,22.90
2017-08-18T02:16:10.035Z,23.97
2017-08-18T02:18:37.547Z,23.37
2017-08-18T02:21:05.083Z,23.10
2017-08-18T02:23:32.596Z,23.87
2017-08-18T02:26:00.110Z,24.23
2017-08-18T02:28:27.643Z,23.10
2017-08-18T02:30:55.149Z,22.03
2017-08-18T02:33:22.661Z,23.17
2017-08-18T02:35:50.235Z,22.87
2017-08-18T02:38:17.759Z,24.23
2017-08-18T02:40:45.270Z,22.13
2017-08-18T02:43:12.810Z,23.23
2017-08-18T02:45:40.325Z,22.00
2017-08-18T02:48:07.840Z,20.33
2017-08-18T02:50:35.371Z,20.83
2017-08-18T02:53:02.888Z,20.73
2017-08-18T02:55:30.407Z,22.60
2017-08-18T02:57:57.951Z,21.53
2017-08-18T03:00:25.468Z,19.57
2017-08-18T03:02:52.983Z,20.60
2017-08-18T03:05:20.523Z,19.73
2017-08-18T03:07:48.072Z,20.07
2017-08-18T03:10:15.574Z,19.53
2017-08-18T03:12:43.223Z,19.07
2017-08-18T03:15:10.731Z,18.70
2017-08-18T03:17:38.242Z,17.57
2017-08-18T03:20:05.779Z,19.37
2017-08-18T03:22:33.287Z,18.60
2017-08-18T03:25:00.798Z,18.80
2017-08-18T03:27:28.339Z,19.77
2017-08-18T03:29:55.855Z,17.00
2017-08-18T03:32:23.367Z,18.60
2017-08-18T03:34:50.911Z,19.13
2017-08-18T03:37:18.431Z,19.03
2017-08-18T03:39:45.938Z,18.57
2017-08-18T03:42:13.482Z,19.77
2017-08-18T03:44:41.000Z,19.30
2017-08-18T03:47:08.517Z,20.17
2017-08-18T03:49:36.059Z,18.93
2017-08-18T03:52:03.579Z,19.60
2017-08-18T03:54:31.090Z,20.57
2017-08-18T03:56:58.642Z,20.13
2017-08-18T03:59:26.166Z,20.40
2017-08-18T04:01:53.719Z,21.27
2017-08-18T04:04:21.234Z,21.90
2017-08-18T04:06:48.751Z,20.93
2017-08-18T04:09:16.296Z,18.67
2017-08-18T04:11:43.812Z,21.13
2017-08-18T04:14:11.323Z,20.13
2017-08-18T04:16:38.883Z,19.30
2017-08-18T04:19:06.403Z,18.87
2017-08-18T04:21:33.918Z,20.37
2017-08-18T04:24:01.454Z,19.13
2017-08-18T04:26:28.962Z,20.20
2017-08-18T04:28:56.474Z,20.30
2017-08-18T04:31:24.010Z,19.20
2017-08-18T04:33:51.522Z,19.13
2017-08-18T04:36:19.038Z,18.50
2017-08-18T04:38:46.582Z,17.90
2017-08-18T04:41:14.103Z,19.50
2017-08-18T04:43:41.620Z,19.83
2017-08-18T04:46:09.159Z,17.60
2017-08-18T04:48:36.676Z,16.70
2017-08-18T04:51:04.190Z,18.57
2017-08-18T04:53:31.748Z,16.97
2017-08-18T04:55:59.272Z,16.63
2017-08-18T04:58:26.786Z,17.20
2017-08-18T05:00:55.154Z,17.40
2017-08-18T05:03:22.671Z,17.97
2017-08-18T05:05:50.184Z,16.90
2017-08-18T05:08:17.719Z,16.00
2017-08-18T05:10:45.230Z,16.90
2017-08-18T05:13:12.739Z,16.87
2017-08-18T05:15:40.279Z,15.60
2017-08-18T05:18:07.792Z,16.40
2017-08-18T05:20:35.297Z,15.53
2017-08-18T05:23:02.839Z,15.30
2017-08-18T05:25:30.355Z,13.63
2017-08-18T05:27:57.867Z,13.90
2017-08-18T05:30:25.459Z,15.70
2017-08-18T05:32:52.980Z,15.07
2017-08-18T05:35:20.498Z,15.80
2017-08-18T05:37:48.039Z,13.57
2017-08-18T05:40:15.550Z,13.73
2017-08-18T05:42:43.066Z,12.80
2017-08-18T05:45:10.598Z,12.70
2017-08-18T05:47:38.115Z,12.33
2017-08-18T05:50:05.646Z,11.70
2017-08-18T05:52:33.164Z,13.60
2017-08-18T05:55:00.690Z,14.03
2017-08-18T05:57:28.239Z,14.57
2017-08-18T05:59:55.751Z,14.83
2017-08-18T06:02:23.278Z,13.77
2017-08-18T06:04:50.822Z,13.80
2017-08-18T06:07:18.394Z,12.57
2017-08-18T06:09:45.903Z,13.70
2017-08-18T06:12:13.451Z,11.87
2017-08-18T06:14:40.968Z,12.13
2017-08-18T06:17:08.483Z,11.93
2017-08-18T06:19:36.014Z,11.20
2017-08-18T06:22:03.562Z,10.53
2017-08-18T06:24:31.070Z,10.10
2017-08-18T06:26:58.591Z,10.43
2017-08-18T06:29:26.132Z,11.53
2017-08-18T06:31:53.657Z,11.57
2017-08-18T06:34:21.173Z,11.70
2017-08-18T06:36:48.707Z,11.43
2017-08-18T06:39:16.223Z,10.20
2017-08-18T06:41:43.740Z,11.77
2017-08-18T06:44:11.279Z,13.07
2017-08-18T06:46:38.801Z,13.63
2017-08-18T06:49:06.319Z,15.43
2017-08-18T06:51:33.866Z,14.53
2017-08-18T06:54:01.378Z,12.40
2017-08-18T06:56:28.920Z,12.60
2017-08-18T06:58:56.478Z,12.93
2017-08-18T07:01:23.991Z,12.60
2017-08-18T07:03:51.508Z,11.93
2017-08-18T07:06:19.058Z,13.57
2017-08-18T07:08:46.566Z,15.00
2017-08-18T07:11:14.138Z,15.00
2017-08-18T07:13:41.679Z,14.90
2017-08-18T07:16:09.195Z,17.30
2017-08-18T07:18:36.711Z,16.23
2017-08-18T07:21:04.247Z,14.07
2017-08-18T07:23:31.768Z,14.60
2017-08-18T07:25:59.278Z,13.53
2017-08-18T07:28:26.814Z,15.63
2017-08-18T07:30:54.323Z,14.20
2017-08-18T07:33:21.844Z,13.90
2017-08-18T07:35:49.383Z,15.40
2017-08-18T07:38:16.895Z,14.73
2017-08-18T07:40:44.414Z,14.97
2017-08-18T07:43:11.951Z,13.47
2017-08-18T07:45:39.463Z,12.00
2017-08-18T07:48:06.979Z,11.90
2017-08-18T07:50:34.506Z,9.27
2017-08-18T07:53:02.016Z,8.73
2017-08-18T07:55:29.545Z,8.37
2017-08-18T07:57:57.056Z,7.77
2017-08-18T08:00:24.592Z,7.73
2017-08-18T08:02:52.102Z,9.40
2017-08-18T08:05:19.649Z,9.13
2017-08-18T08:07:47.187Z,8.70
2017-08-18T08:10:14.701Z,10.27
2017-08-18T08:12:42.219Z,8.93
2017-08-18T08:15:09.750Z,10.17
2017-08-18T08:17:37.258Z,8.60
2017-08-18T08:20:04.763Z,8.03
2017-08-18T08:22:32.292Z,7.30
2017-08-18T08:24:59.801Z,7.30
2017-08-18T08:27:27.310Z,7.40
2017-08-18T08:29:54.846Z,7.27
2017-08-18T08:32:22.356Z,6.97
2017-08-18T08:34:49.884Z,6.83
2017-08-18T08:37:17.391Z,6.60
2017-08-18T08:39:44.913Z,8.33
2017-08-18T08:42:12.443Z,8.70
2017-08-18T08:44:39.951Z,7.93
2017-08-18T08:47:07.483Z,8.03
2017-08-18T08:49:34.991Z,7.53
2017-08-18T08:52:02.523Z,7.87
2017-08-18T08:54:30.035Z,7.80
2017-08-18T08:56:57.540Z,9.30
2017-08-18T08:59:25.075Z,8.33
2017-08-18T09:01:52.578Z,8.03
2017-08-18T09:04:20.091Z,8.50
2017-08-18T09:06:47.631Z,7.90
2017-08-18T09:09:15.134Z,8.60
2017-08-18T09:11:42.667Z,8.17
2017-08-18T09:14:10.206Z,6.60
2017-08-18T09:16:37.812Z,8.33
2017-08-18T09:19:06.417Z,7.57
2017-08-18T09:21:33.928Z,8.23
2017-08-18T09:24:01.448Z,8.00
2017-08-18T09:26:29.007Z,7.57
2017-08-18T09:28:56.510Z,7.97
2017-08-18T09:31:24.020Z,9.03
2017-08-18T09:33:51.547Z,8.27
2017-08-18T09:36:19.056Z,7.97
2017-08-18T09:38:49.910Z,7.63
2017-08-18T09:41:17.457Z,7.60
2017-08-18T09:43:45.015Z,7.97
2017-08-18T09:46:12.539Z,7.00
2017-08-18T09:48:51.814Z,8.00
2017-08-18T09:51:44.986Z,7.57
2017-08-18T09:54:24.222Z,7.40
2017-08-18T09:57:03.726Z,5.90
2017-08-18T09:59:31.259Z,6.80
2017-08-18T10:01:58.854Z,6.60
2017-08-18T10:04:26.358Z,6.13
2017-08-18T10:06:53.887Z,6.57
2017-08-18T10:09:21.406Z,6.47
2017-08-18T10:11:48.912Z,5.63
2017-08-18T10:14:16.404Z,5.97
2017-08-18T10:16:43.951Z,6.60
2017-08-18T10:19:11.454Z,6.57
2017-08-18T10:21:38.991Z,7.10
2017-08-18T10:24:06.502Z,6.50
2017-08-18T10:26:34.007Z,7.37
2017-08-18T10:29:01.534Z,7.57
2017-08-18T10:31:29.038Z,7.30
2017-08-18T10:33:56.543Z,6.60
2017-08-18T10:36:24.071Z,7.07
2017-08-18T10:38:51.574Z,6.93
2017-08-18T10:41:19.070Z,7.10
2017-08-18T10:43:46.658Z,7.27
2017-08-18T10:46:14.196Z,8.40
2017-08-18T10:48:41.699Z,7.03
2017-08-18T10:51:09.227Z,7.33
2017-08-18T10:53:37.135Z,7.10
2017-08-18T10:56:04.643Z,6.47
2017-08-18T10:58:32.170Z,7.13
2017-08-18T11:00:59.695Z,6.70
2017-08-18T11:03:27.211Z,8.50
2017-08-18T11:05:54.829Z,6.63
2017-08-18T11:08:22.350Z,5.53
2017-08-18T11:10:49.860Z,6.53
2017-08-18T11:13:17.415Z,5.93
2017-08-18T11:15:44.915Z,6.50
2017-08-18T11:18:12.423Z,6.83
2017-08-18T11:20:39.954Z,6.77
2017-08-18T11:23:07.468Z,6.20
2017-08-18T11:25:34.983Z,6.67
2017-08-18T11:28:02.516Z,6.20
2017-08-18T11:30:30.015Z,5.80
2017-08-18T11:32:57.514Z,6.90
2017-08-18T11:35:25.038Z,5.40
2017-08-18T11:37:52.575Z,6.53
2017-08-18T11:40:20.089Z,5.73
2017-08-18T11:42:47.587Z,5.00
2017-08-18T11:45:15.114Z,6.47
2017-08-18T11:47:42.610Z,6.10
2017-08-18T11:50:10.123Z,5.87
2017-08-18T11:52:37.650Z,5.70
2017-08-18T11:55:05.155Z,5.43
2017-08-18T11:57:32.668Z,6.27
2017-08-18T12:00:00.194Z,6.50
2017-08-18T12:02:27.694Z,5.90
2017-08-18T12:04:55.199Z,6.00
2017-08-18T12:07:22.730Z,5.47
2017-08-18T12:09:50.237Z,5.70
2017-08-18T12:12:17.760Z,5.93
2017-08-18T12:14:45.315Z,6.73
2017-08-18T12:17:12.818Z,7.10
2017-08-18T12:19:40.329Z,6.37
2017-08-18T12:22:07.850Z,6.40
2017-08-18T12:24:35.351Z,6.27
2017-08-18T12:27:02.851Z,7.10
2017-08-18T12:29:30.381Z,6.60
2017-08-18T12:31:57.919Z,6.10
2017-08-18T12:34:25.438Z,5.77
2017-08-18T12:36:52.967Z,6.87
2017-08-18T12:39:20.482Z,6.60
2017-08-18T12:41:48.018Z,6.30
2017-08-18T12:44:15.530Z,5.87
2017-08-18T12:46:43.031Z,5.77
2017-08-18T12:49:10.558Z,6.50
2017-08-18T12:51:38.059Z,6.83
2017-08-18T12:54:05.642Z,6.43
2017-08-18T12:56:33.171Z,6.70
2017-08-18T12:59:00.699Z,6.93
2017-08-18T13:01:28.202Z,7.20
2017-08-18T13:03:55.727Z,7.23
2017-08-18T13:06:23.250Z,6.27
2017-08-18T13:08:50.783Z,7.00
2017-08-18T13:11:18.301Z,6.20
2017-08-18T13:13:45.832Z,6.90
2017-08-18T13:16:13.379Z,6.13
2017-08-18T13:18:40.878Z,6.10
2017-08-18T13:21:08.379Z,6.90
2017-08-18T13:23:35.902Z,6.20
2017-08-18T13:26:03.408Z,6.30
2017-08-18T13:28:30.908Z,6.30
2017-08-18T13:30:58.438Z,6.20
2017-08-18T13:33:25.955Z,6.80
2017-08-18T13:35:53.466Z,7.30
2017-08-18T13:38:20.995Z,6.27
2017-08-18T13:40:48.540Z,6.43
2017-08-18T13:43:16.047Z,6.70
2017-08-18T13:45:43.579Z,6.77
2017-08-18T13:48:11.089Z,7.13
2017-08-18T13:50:38.600Z,8.67
2017-08-18T13:53:06.126Z,7.70
2017-08-18T13:55:33.637Z,6.60
2017-08-18T13:58:01.147Z,9.13
2017-08-18T14:00:28.683Z,8.77
2017-08-18T14:02:56.187Z,6.43
2017-08-18T14:05:23.698Z,7.33
2017-08-18T14:07:51.223Z,7.00
2017-08-18T14:10:18.738Z,6.73
2017-08-18T14:12:46.298Z,6.60
2017-08-18T14:15:13.825Z,6.60
2017-08-18T14:17:41.419Z,7.40
2017-08-18T14:20:08.927Z,10.23
2017-08-18T14:22:36.461Z,7.47
2017-08-18T14:25:09.602Z,6.60
2017-08-18T14:27:42.742Z,7.63
2017-08-18T14:30:10.268Z,7.10
2017-08-18T14:32:37.778Z,7.63
2017-08-18T14:35:05.316Z,7.20
2017-08-18T14:37:32.814Z,8.43
2017-08-18T14:40:00.323Z,7.43
2017-08-18T14:42:27.867Z,7.40
2017-08-18T14:44:55.383Z,7.63
2017-08-18T14:47:22.895Z,7.73
2017-08-18T14:49:50.432Z,8.20
2017-08-18T14:52:17.943Z,7.53
2017-08-18T14:54:45.494Z,6.90
2017-08-18T14:57:13.023Z,7.27
2017-08-18T14:59:40.526Z,6.83
2017-08-18T15:02:08.031Z,5.70
2017-08-18T15:04:35.563Z,7.37
2017-08-18T15:07:03.072Z,7.40
2017-08-18T15:09:30.587Z,7.90
2017-08-18T15:11:58.115Z,6.47
2017-08-18T15:14:25.623Z,7.10
2017-08-18T15:16:53.126Z,6.97
2017-08-18T15:19:20.654Z,7.20
2017-08-18T15:21:48.166Z,7.00
2017-08-18T15:24:15.675Z,7.30
2017-08-18T15:26:43.203Z,6.20
2017-08-18T15:29:10.706Z,7.63
2017-08-18T15:31:38.202Z,6.70
2017-08-18T15:34:05.730Z,6.20
2017-08-18T15:36:33.275Z,6.37
2017-08-18T15:39:00.779Z,6.80
2017-08-18T15:41:28.291Z,6.90
2017-08-18T15:43:55.827Z,7.03
2017-08-18T15:46:23.354Z,6.60
2017-08-18T15:48:50.858Z,7.70
2017-08-18T15:51:18.395Z,7.37
2017-08-18T15:53:45.906Z,8.17
2017-08-18T15:56:13.417Z,9.43
2017-08-18T15:58:40.955Z,9.00
2017-08-18T16:01:08.468Z,8.33
2017-08-18T16:03:35.995Z,8.03
2017-08-18T16:06:03.527Z,6.83
2017-08-18T16:08:31.054Z,4.87
2017-08-18T16:10:58.591Z,4.87
2017-08-18T16:13:26.103Z,4.73
2017-08-18T16:15:53.614Z,4.37
2017-08-18T16:18:21.150Z,3.80
2017-08-18T16:20:48.667Z,3.93
2017-08-18T16:23:16.188Z,3.77
2017-08-18T16:25:43.719Z,4.03
2017-08-18T16:28:11.227Z,3.83
2017-08-18T16:30:38.747Z,4.43
2017-08-18T16:33:06.290Z,4.47
2017-08-18T16:35:33.814Z,4.40
2017-08-18T16:38:01.320Z,4.50
2017-08-18T16:40:28.846Z,3.90
2017-08-18T16:42:56.352Z,4.00
2017-08-18T16:45:23.860Z,4.20
2017-08-18T16:47:51.790Z,3.90
2017-08-18T16:50:19.295Z,4.00
2017-08-18T16:52:46.803Z,4.20
2017-08-18T16:55:14.338Z,4.13
2017-08-18T16:57:41.848Z,4.23
2017-08-18T17:00:09.350Z,4.20
2017-08-18T17:02:36.848Z,3.50
2017-08-18T17:05:04.400Z,3.37
2017-08-18T17:07:31.971Z,3.57
2017-08-18T17:09:59.491Z,3.10
2017-08-18T17:12:27.019Z,3.07
2017-08-18T17:14:54.531Z,3.53
2017-08-18T17:17:22.039Z,3.00
2017-08-18T17:19:49.566Z,2.87
2017-08-18T17:22:17.074Z,3.30
2017-08-18T17:24:44.574Z,2.37
2017-08-18T17:27:12.117Z,2.70
2017-08-18T17:29:39.631Z,2.87
2017-08-18T17:32:07.159Z,3.07
2017-08-18T17:34:34.701Z,2.80
2017-08-18T17:37:02.202Z,3.20
2017-08-18T17:39:29.707Z,3.40
2017-08-18T17:41:57.243Z,3.33
2017-08-18T17:44:24.759Z,3.30
2017-08-18T17:46:52.267Z,2.83
2017-08-18T17:49:19.799Z,3.30
2017-08-18T17:51:47.450Z,3.10
2017-08-18T17:54:14.949Z,2.90
2017-08-18T17:56:42.487Z,3.57
2017-08-18T17:59:10.000Z,3.90
2017-08-18T18:01:37.498Z,3.20
2017-08-18T18:04:05.032Z,3.93
2017-08-18T18:06:32.540Z,3.60
2017-08-18T18:09:00.044Z,3.33
2017-08-18T18:11:27.579Z,3.43
2017-08-18T18:13:55.123Z,3.30
2017-08-18T18:16:22.644Z,3.40
2017-08-18T18:18:50.179Z,3.70
2017-08-18T18:21:17.766Z,3.57
2017-08-18T18:23:45.276Z,3.97
2017-08-18T18:26:12.811Z,4.17
2017-08-18T18:28:40.315Z,4.10
2017-08-18T18:31:07.823Z,4.60
2017-08-18T18:33:35.359Z,4.53
2017-08-18T18:36:02.888Z,3.80
2017-08-18T18:38:32.570Z,4.47
2017-08-18T18:41:00.139Z,4.93
2017-08-18T18:43:27.747Z,4.30
2017-08-18T18:45:55.279Z,4.60
2017-08-18T18:48:22.823Z,3.53
2017-08-18T18:50:50.327Z,4.10
2017-08-18T18:53:17.854Z,3.80
2017-08-18T18:55:45.364Z,3.47
2017-08-18T18:58:12.871Z,3.37
2017-08-18T19:00:40.399Z,5.80
2017-08-18T19:03:07.952Z,2.80
2017-08-18T19:05:35.450Z,3.23
2017-08-18T19:08:02.947Z,3.10
2017-08-18T19:10:30.475Z,3.70
2017-08-18T19:12:58.002Z,3.60
2017-08-18T19:15:25.515Z,3.40
2017-08-18T19:17:53.017Z,3.40
2017-08-18T19:20:20.546Z,3.20
2017-08-18T19:22:48.051Z,3.50
2017-08-18T19:25:15.559Z,3.10
2017-08-18T19:27:43.082Z,2.90
2017-08-18T19:30:10.580Z,5.20
2017-08-18T19:32:38.088Z,3.70
2017-08-18T19:35:05.614Z,3.10
2017-08-18T19:37:33.114Z,2.80
2017-08-18T19:40:00.620Z,2.80
2017-08-18T19:42:28.160Z,2.60
2017-08-18T19:44:55.668Z,3.00
2017-08-18T19:47:23.175Z,2.90
2017-08-18T19:49:50.716Z,2.70
2017-08-18T19:52:18.225Z,3.30
2017-08-18T19:54:45.722Z,3.53
2017-08-18T19:57:13.255Z,3.30
2017-08-18T19:59:40.755Z,3.00
2017-08-18T20:02:08.259Z,6.20
2017-08-18T20:04:35.796Z,3.97
2017-08-18T20:07:03.303Z,3.60
2017-08-18T20:09:30.818Z,3.40
2017-08-18T20:11:58.352Z,2.93
2017-08-18T20:14:25.854Z,2.80
2017-08-18T20:16:53.395Z,2.77
2017-08-18T20:19:20.902Z,2.97
2017-08-18T20:21:48.407Z,2.90
2017-08-18T20:24:15.937Z,2.43
2017-08-18T20:26:43.449Z,3.10
2017-08-18T20:29:10.951Z,3.30
2017-08-18T20:31:38.481Z,3.80
2017-08-18T20:34:05.989Z,3.30
2017-08-18T20:36:33.491Z,3.20
2017-08-18T20:39:01.014Z,2.83
2017-08-18T20:41:28.535Z,2.67
2017-08-18T20:43:56.043Z,3.00
2017-08-18T20:46:23.583Z,2.83
2017-08-18T20:48:51.092Z,4.17
2017-08-18T20:51:18.603Z,3.60
2017-08-18T20:53:46.159Z,3.03
2017-08-18T20:56:13.679Z,2.97
2017-08-18T20:58:41.182Z,3.00
2017-08-18T21:01:08.711Z,2.53
2017-08-18T21:03:36.236Z,2.90
2017-08-18T21:06:03.739Z,2.80
2017-08-18T21:08:31.239Z,2.97
2017-08-18T21:10:58.779Z,3.87
2017-08-18T21:13:26.278Z,3.70
2017-08-18T21:15:53.784Z,3.50
2017-08-18T21:18:21.327Z,4.80
2017-08-18T21:20:48.827Z,3.20
2017-08-18T21:23:16.331Z,3.07
2017-08-18T21:25:43.859Z,2.70
2017-08-18T21:28:11.364Z,3.60
2017-08-18T21:30:38.874Z,3.07
2017-08-18T21:33:06.412Z,8.33
2017-08-18T21:35:33.931Z,2.90
2017-08-18T21:38:01.438Z,3.40
2017-08-18T21:40:28.979Z,3.27
2017-08-18T21:42:56.481Z,2.90
2017-08-18T21:45:24.003Z,2.93
2017-08-18T21:47:51.511Z,2.70
2017-08-18T21:50:19.046Z,2.70
2017-08-18T21:52:46.559Z,3.00
2017-08-18T21:55:14.067Z,2.80
2017-08-18T21:57:41.593Z,3.07
2017-08-18T22:00:09.123Z,2.93
2017-08-18T22:02:36.623Z,3.33
2017-08-18T22:05:04.162Z,3.30
2017-08-18T22:07:31.672Z,3.40
2017-08-18T22:09:59.175Z,3.00
2017-08-18T22:12:26.716Z,2.70
2017-08-18T22:14:54.218Z,3.10
2017-08-18T22:17:21.723Z,2.80
2017-08-18T22:19:49.251Z,3.17
2017-08-18T22:22:16.750Z,3.50
2017-08-18T22:24:44.263Z,3.30
2017-08-18T22:27:11.791Z,3.40
2017-08-18T22:29:39.363Z,2.97
2017-08-18T22:32:06.867Z,3.37
2017-08-18T22:34:34.412Z,4.07
2017-08-18T22:37:01.910Z,3.50
2017-08-18T22:39:29.418Z,3.53
2017-08-18T22:41:56.942Z,3.63
2017-08-18T22:44:24.467Z,3.83
2017-08-18T22:46:51.975Z,4.63
2017-08-18T22:49:19.502Z,4.57
2017-08-18T22:51:47.023Z,3.40
2017-08-18T22:54:14.522Z,4.10
2017-08-18T22:56:42.043Z,4.10
2017-08-18T22:59:09.571Z,4.53
2017-08-18T23:01:37.271Z,4.60
2017-08-18T23:04:04.779Z,7.30
2017-08-18T23:06:32.278Z,7.23
2017-08-18T23:08:59.815Z,5.90
2017-08-18T23:11:27.340Z,7.67
2017-08-18T23:13:54.859Z,8.00
2017-08-18T23:16:22.390Z,5.87
2017-08-18T23:18:49.898Z,4.60
2017-08-18T23:21:17.434Z,4.10
2017-08-18T23:23:44.934Z,3.30
2017-08-18T23:26:12.439Z,3.00
2017-08-18T23:28:39.968Z,3.00
2017-08-18T23:31:07.483Z,3.10
2017-08-18T23:33:35.003Z,3.30
2017-08-18T23:36:02.527Z,3.30
2017-08-18T23:38:30.043Z,3.43
2017-08-18T23:40:57.578Z,3.00
2017-08-18T23:43:25.102Z,3.60
2017-08-18T23:45:52.623Z,3.27
2017-08-18T23:48:20.152Z,4.17
2017-08-18T23:50:47.663Z,3.60
2017-08-18T23:53:15.168Z,7.00
2017-08-18T23:55:42.695Z,3.70
2017-08-18T23:58:10.208Z,4.50
